Weatherford, Oklahoma
Current Conditions -  °F | °C
As of 3:15 PM on Monday 22 Dec 2014 (Local Time) from KOJA Reporting Station
Clear Clear  
Wind Chill: 54°   Ceiling: Unl
Heat Index: 54°   Visibility: 10mi
Dew Point: 32°   Wind: 15mph
Humidity: 44%   Direction: 340°NNW
Pressure: 29.62"   Gusts: 23mph
Location:  35.53°N, 98.71°W
Report Text: KOJA 222115Z AUTO 34013G20KT 10SM CLR 12/00 A2962 RMK AO2
Loading
Personal Weather Stations






























Interactive Weather Map New forecast layout! Learn more

10-Day Weather Forecast

Advertisements
Track Severe Weather on mobile